Time,TemperatureF,DewpointF,PressureIn,WindDirection,WindDirectionDegrees,WindSpeedMPH,WindSpeedGustMPH,Humidity,HourlyPrecipIn,Conditions,Clouds,dailyrainin,SoftwareType,DateUTC
2013-02-08 00:02:00,47.0,36.0,29.78,SSW,199,2.0,7.0,65,0.00,,,0.00,,2013-02-08 05:02:00,
2013-02-08 00:12:00,47.0,36.0,29.78,SSW,199,2.0,7.0,65,0.00,,,0.00,,2013-02-08 05:12:00,
2013-02-08 00:22:00,47.0,36.0,29.78,SSE,162,2.0,8.0,65,0.00,,,0.00,,2013-02-08 05:22:00,
2013-02-08 00:32:00,47.0,36.0,29.80,South,171,2.0,8.0,66,0.00,,,0.00,,2013-02-08 05:32:00,
2013-02-08 00:42:00,47.0,36.0,29.80,South,171,2.0,8.0,66,0.00,,,0.00,,2013-02-08 05:42:00,
2013-02-08 00:52:00,47.0,37.0,29.80,SSW,195,4.0,7.0,68,0.00,,,0.00,,2013-02-08 05:52:00,
2013-02-08 01:01:00,47.0,37.0,29.80,West,278,2.0,7.0,69,0.00,,,0.00,,2013-02-08 06:01:00,
2013-02-08 01:11:00,47.0,37.0,29.80,West,278,2.0,7.0,69,0.00,,,0.00,,2013-02-08 06:11:00,
2013-02-08 01:21:00,46.0,38.0,29.78,West,278,2.0,5.0,74,0.00,,,0.00,,2013-02-08 06:21:00,
2013-02-08 01:32:00,45.0,38.0,29.81,WSW,239,3.0,4.0,76,0.00,,,0.00,,2013-02-08 06:32:00,
2013-02-08 01:42:00,45.0,38.0,29.81,WSW,239,3.0,4.0,76,0.00,,,0.00,,2013-02-08 06:42:00,
2013-02-08 01:52:00,45.0,38.0,29.81,SW,234,1.0,6.0,76,0.00,,,0.00,,2013-02-08 06:52:00,
2013-02-08 02:01:00,45.0,38.0,29.81,WSW,239,2.0,5.0,77,0.01,,,0.01,,2013-02-08 07:01:00,
2013-02-08 02:11:00,44.0,38.0,29.81,WNW,298,0.0,3.0,80,0.01,,,0.01,,2013-02-08 07:11:00,
2013-02-08 02:21:00,44.0,38.0,29.81,WNW,298,0.0,3.0,80,0.01,,,0.01,,2013-02-08 07:21:00,
2013-02-08 02:32:00,44.0,39.0,29.80,SW,217,1.0,5.0,82,0.01,,,0.01,,2013-02-08 07:32:00,
2013-02-08 02:42:00,44.0,39.0,29.80,WNW,287,2.0,5.0,84,0.02,,,0.02,,2013-02-08 07:42:00,
2013-02-08 02:52:00,44.0,39.0,29.80,WNW,287,2.0,5.0,84,0.02,,,0.02,,2013-02-08 07:52:00,
2013-02-08 03:01:00,44.0,40.0,29.81,WNW,288,3.0,6.0,85,0.02,,,0.02,,2013-02-08 08:01:00,
2013-02-08 03:11:00,43.0,40.0,29.83,WNW,302,9.0,14.0,88,0.01,,,0.02,,2013-02-08 08:11:00,
2013-02-08 03:21:00,43.0,40.0,29.83,WNW,302,9.0,14.0,88,0.01,,,0.02,,2013-02-08 08:21:00,
2013-02-08 03:32:00,42.0,39.0,29.80,NNW,335,8.0,17.0,88,0.01,,,0.02,,2013-02-08 08:32:00,
2013-02-08 03:42:00,42.0,39.0,29.80,NNW,335,8.0,17.0,88,0.01,,,0.02,,2013-02-08 08:42:00,
2013-02-08 03:52:00,41.0,38.0,29.80,WNW,289,7.0,17.0,88,0.01,,,0.03,,2013-02-08 08:52:00,
2013-02-08 04:03:00,40.0,37.0,29.81,WNW,301,9.0,16.0,88,0.02,,,0.04,,2013-02-08 09:03:00,
2013-02-08 04:11:00,40.0,37.0,29.81,WNW,301,9.0,16.0,88,0.02,,,0.04,,2013-02-08 09:11:00,
2013-02-08 04:21:00,39.0,36.0,29.81,NW,306,8.0,17.0,88,0.02,,,0.04,,2013-02-08 09:21:00,
2013-02-08 04:32:00,38.0,35.0,29.82,NW,304,8.0,19.0,88,0.03,,,0.05,,2013-02-08 09:32:00,
2013-02-08 04:42:00,38.0,35.0,29.82,NW,304,8.0,19.0,88,0.03,,,0.05,,2013-02-08 09:42:00,
2013-02-08 04:52:00,38.0,35.0,29.82,WNW,292,11.0,20.0,88,0.03,,,0.05,,2013-02-08 09:52:00,
2013-02-08 05:01:00,38.0,35.0,29.82,WNW,292,11.0,20.0,88,0.03,,,0.05,,2013-02-08 10:01:00,
2013-02-08 05:12:00,38.0,35.0,29.82,WNW,292,11.0,20.0,88,0.03,,,0.05,,2013-02-08 10:12:00,
2013-02-08 05:22:00,38.0,35.0,29.82,WNW,292,11.0,20.0,88,0.03,,,0.05,,2013-02-08 10:22:00,
2013-02-08 13:36:00,33.0,26.0,30.11,NNW,329,7.0,19.0,75,-99.99,,,-99.99,,2013-02-08 18:36:00,
2013-02-08 13:44:00,33.0,26.0,30.11,NNW,329,7.0,19.0,75,-99.99,,,-99.99,,2013-02-08 18:44:00,
2013-02-08 13:53:00,33.0,26.0,30.12,North,350,7.0,19.0,74,-99.99,,,-99.99,,2013-02-08 18:53:00,
2013-02-08 14:02:00,33.0,26.0,30.12,North,350,7.0,19.0,74,-99.99,,,-99.99,,2013-02-08 19:02:00,
2013-02-08 14:11:00,33.0,26.0,30.12,North,350,7.0,19.0,74,-99.99,,,-99.99,,2013-02-08 19:11:00,
2013-02-08 14:22:00,33.0,26.0,30.12,North,350,7.0,19.0,74,-99.99,,,-99.99,,2013-02-08 19:22:00,
2013-02-08 15:22:00,33.0,26.0,30.14,NW,319,5.0,14.0,75,-99.99,,,-99.99,,2013-02-08 20:22:00,
2013-02-08 15:32:00,33.0,26.0,30.14,NNW,328,8.0,16.0,74,-99.99,,,-99.99,,2013-02-08 20:32:00,
2013-02-08 15:42:00,33.0,26.0,30.14,NNW,328,8.0,16.0,74,-99.99,,,-99.99,,2013-02-08 20:42:00,
2013-02-08 15:52:00,33.0,26.0,30.14,NW,315,8.0,14.0,74,-99.99,,,-99.99,,2013-02-08 20:52:00,
2013-02-08 16:02:00,33.0,26.0,30.16,North,354,9.0,14.0,75,-99.99,,,-99.99,,2013-02-08 21:02:00,
2013-02-08 16:11:00,33.0,26.0,30.16,North,354,9.0,14.0,75,-99.99,,,-99.99,,2013-02-08 21:11:00,
2013-02-08 16:22:00,33.0,25.0,30.17,NW,311,5.0,20.0,73,0.00,,,-99.99,,2013-02-08 21:22:00,
2013-02-08 16:32:00,33.0,26.0,30.15,North,353,4.0,11.0,74,0.00,,,-99.99,,2013-02-08 21:32:00,
2013-02-08 16:42:00,33.0,26.0,30.15,North,353,4.0,11.0,74,0.00,,,-99.99,,2013-02-08 21:42:00,
2013-02-08 16:52:00,33.0,25.0,30.15,North,350,7.0,13.0,73,0.00,,,-99.99,,2013-02-08 21:52:00,
2013-02-08 17:02:00,33.0,25.0,30.16,North,349,6.0,15.0,71,0.00,,,-99.99,,2013-02-08 22:02:00,
2013-02-08 17:11:00,33.0,25.0,30.16,North,349,6.0,15.0,71,0.00,,,-99.99,,2013-02-08 22:11:00,
2013-02-08 17:22:00,33.0,25.0,30.16,North,349,6.0,15.0,71,0.00,,,-99.99,,2013-02-08 22:22:00,
2013-02-08 17:32:00,33.0,25.0,30.16,North,349,6.0,15.0,71,0.00,,,-99.99,,2013-02-08 22:32:00,
2013-02-08 17:42:00,33.0,25.0,30.16,North,349,6.0,15.0,71,0.00,,,-99.99,,2013-02-08 22:42:00,
2013-02-08 18:22:00,32.0,24.0,30.20,North,360,1.0,11.0,72,-99.99,,,-99.99,,2013-02-08 23:22:00,
2013-02-08 18:32:00,32.0,24.0,30.21,NW,326,4.0,12.0,72,-99.99,,,-99.99,,2013-02-08 23:32:00,
2013-02-08 18:42:00,32.0,24.0,30.21,NW,326,4.0,12.0,72,-99.99,,,-99.99,,2013-02-08 23:42:00,
2013-02-08 18:52:00,32.0,24.0,30.23,North,8,5.0,14.0,72,-99.99,,,-99.99,,2013-02-08 23:52:00,
2013-02-08 19:02:00,32.0,24.0,30.23,North,360,3.0,13.0,73,-99.99,,,-99.99,,2013-02-09 00:02:00,
2013-02-08 19:11:00,32.0,24.0,30.23,North,360,3.0,13.0,73,-99.99,,,-99.99,,2013-02-09 00:11:00,
2013-02-08 19:22:00,32.0,24.0,30.23,ENE,58,7.0,14.0,71,0.00,,,-99.99,,2013-02-09 00:22:00,
2013-02-08 19:32:00,32.0,24.0,30.25,North,7,4.0,11.0,73,0.00,,,-99.99,,2013-02-09 00:32:00,
2013-02-08 19:42:00,32.0,24.0,30.25,North,7,4.0,11.0,73,0.00,,,-99.99,,2013-02-09 00:42:00,
2013-02-08 19:52:00,32.0,24.0,30.25,North,359,5.0,13.0,73,0.00,,,-99.99,,2013-02-09 00:52:00,
2013-02-08 20:02:00,31.0,23.0,30.26,NW,326,6.0,12.0,72,0.00,,,-99.99,,2013-02-09 01:02:00,
2013-02-08 20:11:00,31.0,23.0,30.26,NW,326,6.0,12.0,72,0.00,,,-99.99,,2013-02-09 01:11:00,
2013-02-08 20:22:00,31.0,22.0,30.27,North,360,3.0,13.0,68,0.00,,,-99.99,,2013-02-09 01:22:00,
2013-02-08 20:32:00,31.0,22.0,30.27,North,7,5.0,10.0,69,0.00,,,-99.99,,2013-02-09 01:32:00,
2013-02-08 20:42:00,31.0,22.0,30.27,North,7,5.0,10.0,69,0.00,,,-99.99,,2013-02-09 01:42:00,
2013-02-08 20:52:00,31.0,23.0,30.28,NW,322,6.0,8.0,71,0.00,,,-99.99,,2013-02-09 01:52:00,
2013-02-08 21:01:00,31.0,23.0,30.28,NNW,336,0.0,7.0,72,0.00,,,-99.99,,2013-02-09 02:01:00,
2013-02-08 21:11:00,31.0,22.0,30.29,North,11,4.0,11.0,70,0.00,,,-99.99,,2013-02-09 02:11:00,
2013-02-08 21:21:00,31.0,22.0,30.29,North,11,4.0,11.0,70,0.00,,,-99.99,,2013-02-09 02:21:00,
2013-02-08 21:32:00,31.0,22.0,30.29,North,10,5.0,9.0,68,0.00,,,-99.99,,2013-02-09 02:32:00,
2013-02-08 21:42:00,31.0,22.0,30.29,North,10,5.0,9.0,68,0.00,,,-99.99,,2013-02-09 02:42:00,
2013-02-08 21:53:00,31.0,23.0,30.30,NNW,332,3.0,11.0,71,0.00,,,-99.99,,2013-02-09 02:53:00,
2013-02-08 22:02:00,31.0,22.0,30.31,North,360,4.0,8.0,69,0.00,,,-99.99,,2013-02-09 03:02:00,
2013-02-08 22:11:00,31.0,22.0,30.31,North,360,4.0,8.0,69,0.00,,,-99.99,,2013-02-09 03:11:00,
2013-02-08 22:22:00,31.0,21.0,30.31,North,360,3.0,13.0,66,0.00,,,-99.99,,2013-02-09 03:22:00,
2013-02-08 22:32:00,30.0,20.0,30.31,North,359,5.0,14.0,65,0.00,,,-99.99,,2013-02-09 03:32:00,
2013-02-08 22:42:00,30.0,20.0,30.31,North,359,5.0,14.0,65,0.00,,,-99.99,,2013-02-09 03:42:00,
2013-02-08 22:53:00,30.0,20.0,30.31,NNE,25,6.0,14.0,66,0.00,,,-99.99,,2013-02-09 03:53:00,
2013-02-08 23:03:00,30.0,21.0,30.32,NE,44,2.0,13.0,70,0.00,,,-99.99,,2013-02-09 04:03:00,
2013-02-08 23:12:00,29.0,20.0,30.32,NNE,21,3.0,11.0,70,0.00,,,-99.99,,2013-02-09 04:12:00,
2013-02-08 23:23:00,29.0,20.0,30.32,NNE,21,3.0,11.0,70,0.00,,,-99.99,,2013-02-09 04:23:00,
2013-02-08 23:32:00,29.0,20.0,30.32,NNE,24,3.0,10.0,69,0.00,,,-99.99,,2013-02-09 04:32:00,
2013-02-08 23:42:00,29.0,20.0,30.32,NNE,24,3.0,10.0,69,0.00,,,-99.99,,2013-02-09 04:42:00,
2013-02-08 23:52:00,28.0,18.0,30.32,NNE,25,0.0,11.0,66,0.00,,,-99.99,,2013-02-09 04:52:00,